Red Deer Regional Airport
CYQF : now visible

Airfield :











YOU CAN JOIN US ON...

 
LOGIN :

Register | Disclaimer

   EN    FR    IT 

 









Legend :    VFR   Marginal VFR   IFR   Intensive IFR   Very Intensive IFR
Visi :
Ceiling :
>= 8 km
>= 3000ft
5 to 8 km
1000 to 3000 ft
1500m to 5 km
500 to 1000 ft
800 to 1500m
200 to 500 ft
< 800m
< 200 ft
Symbols :   Thunderstorms  Fog  Heavy snow  Heavy precipitations  Wind > 20 kt






- Airport Elevation : 2968 ft
- IATA code : YQF


CYQF - Red Deer Regional

CURRENT METAR :
  • 290200Z 18005KT 15SM BKN120 02/01 A2993 RMK AS6 SLP173

EXPIRED METARs :
  • 290117Z 16007KT 15SM BKN120 04/01 A2994 RMK AS6 SLP175
  • 290000Z 17005KT 15SM BKN130 04/02 A2995 RMK AS7 SLP179

TAF TAF CYQF
Valid from the 29 at 00:00 until the 29 at 12:00 UTC


282338Z 2900/2912 19006KT P6SM FEW015 OVC080
TEMPO 2900/2912 2SM BR BKN015 OVC060
PROB30 2909/2912 1/2SM FG VV005 RMK NXT FCST BY 290600Z
CZEG FIR / North America



MET'MAP, your aeronautical weather chart ! - Copyright ORBIFLY December 2007 - Disclaimer

ORBIFLY MET'MAP TEAM :

Programming & Development : Alexandra Zaïnal
Concept & original design : Baudouin d'Aumeries
Assistance for programming : Marc-Olivier Méhu
Technical & hardware support : Manuel Goepfert

Contact : metmap@orbifly.com




SOURCES & CREDITS :

   NOAA       Earth
Advisory